Time;durP1;ratioP1;P1;durP2;ratioP2;P2;SDS_P1;SDS_P2;PMS_P1;PMS_P2;Temp;Humidity;BMP_temperature;BMP_pressure;BME280_temperature;BME280_humidity;BME280_pressure;Samples;Min_cycle;Max_cycle;Signal;HPM_P1;HPM_P2
2022/11/02 00:02:08;;;;;;;7.43;2.13;;;;;;;;;;4918914;29;20146;-77
2022/11/02 00:04:35;;;;;;;10.00;3.05;;;;;;;;;;4917634;29;20043;-77
2022/11/02 00:07:01;;;;;;;10.25;3.05;;;;;;;;;;4919198;29;20044;-76
2022/11/02 00:09:27;;;;;;;8.52;2.78;;;;;;;;;;4918260;29;20044;-77
2022/11/02 00:11:53;;;;;;;7.45;2.53;;;;;;;;;;4918518;29;20047;-77
2022/11/02 00:14:19;;;;;;;8.68;2.38;;;;;;;;;;4919101;29;20048;-77
2022/11/02 00:16:45;;;;;;;10.25;2.78;;;;;;;;;;4919017;29;20036;-77
2022/11/02 00:19:11;;;;;;;12.20;3.05;;;;;;;;;;4918722;29;20079;-77
2022/11/02 00:21:38;;;;;;;10.27;2.53;;;;;;;;;;4918562;29;20404;-77
2022/11/02 00:24:05;;;;;;;9.52;2.65;;;;;;;;;;4918855;29;20048;-77
2022/11/02 00:26:32;;;;;;;10.43;2.58;;;;;;;;;;4918735;29;20583;-76
2022/11/02 00:28:58;;;;;;;8.93;2.85;;;;;;;;;;4919039;29;20139;-76
2022/11/02 00:31:24;;;;;;;10.50;2.55;;;;;;;;;;4918514;29;20040;-77
2022/11/02 00:33:51;;;;;;;6.38;2.20;;;;;;;;;;4918741;29;20036;-76
2022/11/02 00:36:17;;;;;;;6.70;2.22;;;;;;;;;;4918734;29;20043;-76
2022/11/02 00:38:43;;;;;;;10.07;2.40;;;;;;;;;;4918960;29;20052;-76
2022/11/02 00:41:09;;;;;;;5.90;1.90;;;;;;;;;;4918169;29;20484;-77
2022/11/02 00:43:35;;;;;;;7.68;1.98;;;;;;;;;;4918917;29;20127;-77
2022/11/02 00:46:01;;;;;;;11.35;3.20;;;;;;;;;;4918490;29;20446;-76
2022/11/02 00:48:27;;;;;;;5.25;2.13;;;;;;;;;;4919131;29;20055;-76
2022/11/02 00:50:54;;;;;;;8.30;2.45;;;;;;;;;;4918520;29;20048;-76
2022/11/02 00:53:20;;;;;;;6.22;2.30;;;;;;;;;;4918646;29;20040;-76
2022/11/02 00:55:46;;;;;;;11.65;2.50;;;;;;;;;;4918328;29;20047;-76
2022/11/02 00:58:12;;;;;;;10.70;2.17;;;;;;;;;;4918369;29;20039;-76
2022/11/02 01:00:39;;;;;;;7.35;2.13;;;;;;;;;;4918405;29;20074;-76
2022/11/02 01:03:05;;;;;;;6.82;1.75;;;;;;;;;;4918362;29;20083;-76
2022/11/02 01:05:31;;;;;;;3.78;1.75;;;;;;;;;;4918106;29;20136;-76
2022/11/02 01:07:57;;;;;;;5.25;2.10;;;;;;;;;;4918059;29;20584;-76
2022/11/02 01:10:24;;;;;;;11.15;2.40;;;;;;;;;;4918264;29;20048;-77
2022/11/02 01:12:51;;;;;;;6.03;2.70;;;;;;;;;;4918269;29;20043;-77
2022/11/02 01:15:17;;;;;;;9.00;2.22;;;;;;;;;;4918265;29;20048;-76
2022/11/02 01:17:43;;;;;;;7.82;2.22;;;;;;;;;;4918230;29;20040;-76
2022/11/02 01:20:09;;;;;;;5.80;2.30;;;;;;;;;;4918479;29;20048;-76
2022/11/02 01:22:35;;;;;;;9.43;1.70;;;;;;;;;;4918114;29;20044;-76
2022/11/02 01:25:01;;;;;;;6.68;1.92;;;;;;;;;;4917883;29;20044;-76
2022/11/02 01:27:28;;;;;;;4.80;2.00;;;;;;;;;;4918673;29;20506;-76
2022/11/02 01:29:54;;;;;;;6.85;2.10;;;;;;;;;;4918431;29;20127;-76
2022/11/02 01:32:20;;;;;;;6.78;1.92;;;;;;;;;;4922214;29;20125;-76
2022/11/02 01:34:46;;;;;;;9.00;2.00;;;;;;;;;;4921707;29;20072;-76
2022/11/02 01:37:12;;;;;;;7.85;2.50;;;;;;;;;;4922153;29;20044;-76
2022/11/02 01:39:38;;;;;;;9.57;2.55;;;;;;;;;;4921765;29;20239;-76
2022/11/02 01:42:15;;;;;;;7.10;2.40;;;;;;;;;;4921371;29;20508;-76
2022/11/02 01:44:42;;;;;;;9.13;2.58;;;;;;;;;;4921822;29;20112;-76
2022/11/02 01:47:29;;;;;;;7.68;2.00;;;;;;;;;;4921671;29;20047;-76
2022/11/02 01:50:00;;;;;;;7.35;1.95;;;;;;;;;;4921200;29;20048;-77
2022/11/02 01:52:28;;;;;;;8.75;1.85;;;;;;;;;;4922221;29;20134;-76
2022/11/02 01:54:57;;;;;;;9.10;2.13;;;;;;;;;;4921138;29;20070;-77
2022/11/02 01:57:25;;;;;;;10.50;2.15;;;;;;;;;;4921551;29;20103;-77
2022/11/02 01:59:58;;;;;;;5.97;2.00;;;;;;;;;;4921376;29;20050;-77
2022/11/02 02:02:25;;;;;;;12.93;2.13;;;;;;;;;;4921523;29;20048;-76
2022/11/02 02:04:53;;;;;;;8.45;2.58;;;;;;;;;;4921393;29;20052;-77
2022/11/02 02:07:23;;;;;;;6.25;1.80;;;;;;;;;;4921345;29;20040;-77
2022/11/02 02:09:49;;;;;;;12.38;2.20;;;;;;;;;;4921089;29;20051;-77
2022/11/02 02:12:15;;;;;;;8.68;2.60;;;;;;;;;;4920968;29;20047;-76
2022/11/02 02:14:42;;;;;;;5.03;1.50;;;;;;;;;;4921237;29;20046;-76
2022/11/02 02:17:28;;;;;;;6.43;1.92;;;;;;;;;;4921173;29;20048;-76
2022/11/02 02:20:06;;;;;;;6.28;1.77;;;;;;;;;;4921408;29;20043;-76
2022/11/02 02:22:51;;;;;;;9.07;2.45;;;;;;;;;;4920739;29;20491;-76
2022/11/02 02:25:36;;;;;;;9.85;2.10;;;;;;;;;;4920568;29;20388;-76
2022/11/02 02:28:18;;;;;;;7.50;2.17;;;;;;;;;;4920989;29;20100;-76
2022/11/02 02:31:04;;;;;;;6.85;1.88;;;;;;;;;;4921000;29;20071;-76
2022/11/02 02:33:53;;;;;;;8.88;2.25;;;;;;;;;;4900619;29;20075;-76
2022/11/02 02:36:23;;;;;;;6.05;1.92;;;;;;;;;;4920903;29;20040;-76
2022/11/02 02:38:58;;;;;;;9.43;2.50;;;;;;;;;;4921090;29;20044;-76
2022/11/02 02:41:35;;;;;;;8.68;2.53;;;;;;;;;;4920315;29;20060;-77
2022/11/02 02:44:02;;;;;;;11.18;2.33;;;;;;;;;;4921048;29;20048;-77
2022/11/02 02:46:36;;;;;;;10.65;2.80;;;;;;;;;;4920677;29;20048;-77
2022/11/02 02:49:04;;;;;;;6.70;1.88;;;;;;;;;;4920781;29;20051;-77
2022/11/02 02:51:31;;;;;;;8.48;2.83;;;;;;;;;;4920875;29;20495;-77
2022/11/02 02:54:10;;;;;;;6.15;2.30;;;;;;;;;;4920809;29;20040;-76
2022/11/02 02:56:40;;;;;;;10.88;3.50;;;;;;;;;;4920625;29;20476;-77
2022/11/02 02:59:08;;;;;;;5.53;2.35;;;;;;;;;;4935580;29;20464;-77
2022/11/02 03:01:34;;;;;;;4.88;1.90;;;;;;;;;;4920595;29;20047;-77
2022/11/02 03:04:01;;;;;;;9.20;1.88;;;;;;;;;;4920856;29;20054;-77
2022/11/02 03:06:27;;;;;;;4.90;1.90;;;;;;;;;;4920613;29;20080;-77
2022/11/02 03:09:05;;;;;;;10.65;2.15;;;;;;;;;;4920418;29;20055;-76
2022/11/02 03:11:33;;;;;;;13.35;2.10;;;;;;;;;;4920410;29;20123;-76
2022/11/02 03:14:07;;;;;;;8.95;1.98;;;;;;;;;;4920895;29;20044;-76
2022/11/02 03:16:42;;;;;;;7.68;1.60;;;;;;;;;;4920425;29;20043;-76
2022/11/02 03:19:30;;;;;;;4.55;1.67;;;;;;;;;;4920338;29;20055;-76
2022/11/02 03:22:02;;;;;;;4.70;1.70;;;;;;;;;;4920882;29;20110;-76
2022/11/02 03:24:31;;;;;;;5.95;1.65;;;;;;;;;;4920107;29;20055;-76
2022/11/02 03:26:57;;;;;;;6.47;1.92;;;;;;;;;;4920411;29;20040;-77
2022/11/02 03:29:32;;;;;;;5.85;1.88;;;;;;;;;;4920437;29;20118;-77
2022/11/02 03:32:00;;;;;;;6.07;1.58;;;;;;;;;;4920420;29;20127;-76
2022/11/02 03:34:32;;;;;;;4.78;1.63;;;;;;;;;;4920115;29;20106;-76
2022/11/02 03:36:59;;;;;;;8.60;1.92;;;;;;;;;;4920828;29;20078;-76
2022/11/02 03:39:32;;;;;;;6.85;1.60;;;;;;;;;;4919806;29;20051;-77
2022/11/02 03:42:00;;;;;;;6.38;1.58;;;;;;;;;;4919423;29;20070;-77
2022/11/02 03:44:27;;;;;;;8.90;2.00;;;;;;;;;;4919807;29;20047;-76
2022/11/02 03:46:57;;;;;;;5.97;1.70;;;;;;;;;;4919553;29;20068;-77
2022/11/02 03:49:24;;;;;;;4.43;1.63;;;;;;;;;;4919224;29;20518;-77
2022/11/02 03:51:51;;;;;;;4.22;1.88;;;;;;;;;;4919513;29;20575;-77
2022/11/02 03:54:22;;;;;;;9.43;1.90;;;;;;;;;;4918926;29;20064;-77
2022/11/02 03:56:51;;;;;;;7.28;1.80;;;;;;;;;;4919392;29;20047;-77
2022/11/02 03:59:17;;;;;;;7.55;1.88;;;;;;;;;;4919607;29;20135;-77
2022/11/02 04:01:44;;;;;;;6.97;1.50;;;;;;;;;;4918973;29;20051;-76
2022/11/02 04:04:11;;;;;;;6.32;1.77;;;;;;;;;;4919243;29;20044;-76
2022/11/02 04:06:37;;;;;;;8.93;1.88;;;;;;;;;;4919782;29;20103;-76
2022/11/02 04:09:04;;;;;;;4.60;1.35;;;;;;;;;;4919542;29;20119;-76
2022/11/02 04:19:45;;;;;;;6.07;1.70;;;;;;;;;;4918528;29;20122;-76
2022/11/02 04:27:40;;;;;;;6.82;1.83;;;;;;;;;;4918382;29;20039;-76
2022/11/02 04:30:06;;;;;;;8.75;1.98;;;;;;;;;;4919068;29;20170;-76
2022/11/02 04:35:28;;;;;;;6.22;1.85;;;;;;;;;;4918218;29;20051;-76
2022/11/02 04:40:39;;;;;;;13.05;2.00;;;;;;;;;;4917926;29;20082;-77
2022/11/02 04:43:05;;;;;;;4.20;1.45;;;;;;;;;;4918651;29;20500;-76
2022/11/02 04:45:32;;;;;;;5.03;1.85;;;;;;;;;;4918591;29;20040;-76
2022/11/02 04:48:08;;;;;;;6.13;1.75;;;;;;;;;;4918595;29;20480;-76
2022/11/02 04:50:34;;;;;;;5.82;2.05;;;;;;;;;;4918069;29;20529;-76
2022/11/02 04:53:02;;;;;;;4.72;2.05;;;;;;;;;;4918206;29;20040;-76
2022/11/02 04:55:28;;;;;;;4.20;1.73;;;;;;;;;;4918048;29;20040;-76
2022/11/02 04:57:55;;;;;;;9.65;2.08;;;;;;;;;;4918622;29;20172;-76
2022/11/02 05:00:21;;;;;;;8.80;1.73;;;;;;;;;;4918347;29;20037;-76
2022/11/02 05:02:48;;;;;;;8.70;1.67;;;;;;;;;;4917972;29;20572;-76
2022/11/02 05:05:15;;;;;;;6.20;1.65;;;;;;;;;;4917533;29;20044;-76
2022/11/02 05:07:41;;;;;;;4.93;1.60;;;;;;;;;;4918517;29;20050;-76
2022/11/02 05:10:07;;;;;;;6.55;1.80;;;;;;;;;;4918404;29;20056;-76
2022/11/02 05:12:34;;;;;;;3.97;1.95;;;;;;;;;;4918030;29;20055;-76
2022/11/02 05:15:00;;;;;;;11.95;1.80;;;;;;;;;;4917996;29;20074;-76
2022/11/02 05:17:26;;;;;;;4.95;1.95;;;;;;;;;;4932821;29;20448;-76
2022/11/02 05:19:52;;;;;;;7.53;2.17;;;;;;;;;;4918577;29;20056;-76
2022/11/02 05:22:20;;;;;;;5.97;1.98;;;;;;;;;;4917892;29;20051;-76
2022/11/02 05:24:46;;;;;;;7.88;1.85;;;;;;;;;;4918033;29;20051;-76
2022/11/02 05:27:12;;;;;;;10.98;2.10;;;;;;;;;;4917891;29;20467;-76
2022/11/02 05:29:38;;;;;;;6.57;1.85;;;;;;;;;;4917545;29;20132;-76
2022/11/02 05:32:05;;;;;;;6.07;1.63;;;;;;;;;;4917871;29;20044;-76
2022/11/02 05:34:31;;;;;;;11.00;1.77;;;;;;;;;;4918193;29;20036;-76
2022/11/02 05:36:57;;;;;;;5.57;2.05;;;;;;;;;;4918068;29;20044;-76
2022/11/02 05:39:23;;;;;;;7.95;2.15;;;;;;;;;;4918294;29;20100;-77
2022/11/02 05:41:49;;;;;;;9.10;1.63;;;;;;;;;;4917878;29;20567;-76
2022/11/02 05:44:16;;;;;;;8.38;1.75;;;;;;;;;;4918054;29;20050;-76
2022/11/02 05:46:42;;;;;;;9.73;2.08;;;;;;;;;;4918814;29;20476;-76
2022/11/02 05:49:09;;;;;;;8.38;2.05;;;;;;;;;;4918715;29;20052;-76
2022/11/02 05:51:35;;;;;;;6.10;1.90;;;;;;;;;;4917995;29;20108;-76
2022/11/02 05:54:01;;;;;;;9.10;2.10;;;;;;;;;;4918414;29;20068;-76
2022/11/02 05:56:27;;;;;;;5.57;1.60;;;;;;;;;;4917757;29;20048;-76
2022/11/02 05:58:54;;;;;;;9.32;2.05;;;;;;;;;;4918934;29;20044;-76
2022/11/02 06:01:20;;;;;;;8.40;1.70;;;;;;;;;;4917755;29;20055;-76
2022/11/02 06:03:46;;;;;;;10.70;2.20;;;;;;;;;;4918132;29;20036;-76
2022/11/02 06:06:12;;;;;;;13.13;2.08;;;;;;;;;;4918102;29;20143;-76
2022/11/02 06:08:39;;;;;;;6.57;2.10;;;;;;;;;;4918659;29;20492;-76
2022/11/02 06:11:09;;;;;;;6.70;1.70;;;;;;;;;;4917934;29;20040;-76
2022/11/02 06:13:36;;;;;;;8.15;2.15;;;;;;;;;;4918068;29;20040;-76
2022/11/02 06:16:03;;;;;;;9.88;2.50;;;;;;;;;;4918710;29;20048;-76
2022/11/02 06:18:30;;;;;;;7.75;2.00;;;;;;;;;;4921337;29;20103;-76
2022/11/02 06:20:57;;;;;;;10.45;2.28;;;;;;;;;;4921329;29;20048;-76
2022/11/02 06:23:24;;;;;;;6.63;2.30;;;;;;;;;;4921355;29;20047;-76
2022/11/02 06:25:51;;;;;;;9.70;2.15;;;;;;;;;;4921131;29;20111;-76
2022/11/02 06:28:17;;;;;;;9.88;2.25;;;;;;;;;;4920768;29;20040;-76
2022/11/02 06:30:44;;;;;;;17.98;2.20;;;;;;;;;;4921003;29;20048;-75
2022/11/02 06:33:10;;;;;;;7.28;2.10;;;;;;;;;;4920381;29;20044;-75
2022/11/02 06:35:36;;;;;;;11.75;2.40;;;;;;;;;;4919769;29;20136;-75
2022/11/02 06:38:03;;;;;;;6.45;2.05;;;;;;;;;;4918837;29;20052;-76
2022/11/02 06:40:29;;;;;;;11.90;2.92;;;;;;;;;;4913655;29;20051;-76
2022/11/02 06:42:56;;;;;;;7.25;2.10;;;;;;;;;;4919962;29;20063;-76
2022/11/02 06:45:22;;;;;;;8.77;2.47;;;;;;;;;;4919945;29;20122;-76
2022/11/02 06:47:48;;;;;;;9.93;2.30;;;;;;;;;;4920327;29;20051;-76
2022/11/02 06:50:14;;;;;;;8.30;2.45;;;;;;;;;;4920022;29;20080;-76
2022/11/02 06:52:44;;;;;;;5.35;2.10;;;;;;;;;;4917488;29;20052;-76
2022/11/02 06:55:10;;;;;;;7.07;2.15;;;;;;;;;;4919659;29;20504;-76
2022/11/02 06:57:37;;;;;;;6.00;2.20;;;;;;;;;;4919803;29;20072;-76
2022/11/02 07:00:07;;;;;;;7.50;2.00;;;;;;;;;;4920031;29;20040;-76
2022/11/02 07:02:33;;;;;;;14.52;2.65;;;;;;;;;;4920290;29;20059;-75
2022/11/02 07:04:59;;;;;;;4.78;2.10;;;;;;;;;;4920359;29;20043;-75
2022/11/02 07:07:25;;;;;;;11.05;2.72;;;;;;;;;;4920614;29;20047;-78
2022/11/02 07:09:51;;;;;;;10.63;2.47;;;;;;;;;;4920682;29;20047;-74
2022/11/02 07:12:17;;;;;;;6.35;2.15;;;;;;;;;;4920713;29;20048;-73
2022/11/02 07:14:43;;;;;;;10.68;2.25;;;;;;;;;;4920510;29;20126;-74
2022/11/02 07:17:09;;;;;;;8.02;2.60;;;;;;;;;;4920500;29;20051;-74
2022/11/02 07:19:35;;;;;;;11.77;3.80;;;;;;;;;;4919406;29;20048;-74
2022/11/02 07:22:02;;;;;;;11.13;3.60;;;;;;;;;;4937450;29;20055;-74
2022/11/02 07:24:28;;;;;;;9.32;5.03;;;;;;;;;;4933861;29;20044;-74
2022/11/02 07:26:54;;;;;;;10.38;4.75;;;;;;;;;;4920003;29;20044;-74
2022/11/02 07:29:20;;;;;;;10.43;4.38;;;;;;;;;;4916725;29;20068;-74
2022/11/02 07:31:47;;;;;;;12.65;3.28;;;;;;;;;;4918320;29;20104;-74
2022/11/02 07:34:13;;;;;;;18.30;3.72;;;;;;;;;;4917757;29;20052;-73
2022/11/02 07:36:39;;;;;;;9.55;2.75;;;;;;;;;;4918131;29;20048;-74
2022/11/02 07:39:06;;;;;;;6.28;2.70;;;;;;;;;;4900894;29;20092;-74
2022/11/02 07:41:32;;;;;;;9.73;3.58;;;;;;;;;;4913990;29;20081;-73
2022/11/02 07:43:59;;;;;;;7.20;3.53;;;;;;;;;;4919855;29;20040;-74
2022/11/02 07:46:25;;;;;;;12.45;4.22;;;;;;;;;;4919568;29;20040;-74
2022/11/02 07:48:51;;;;;;;13.32;3.05;;;;;;;;;;4918463;29;20538;-74
2022/11/02 07:51:17;;;;;;;12.95;3.33;;;;;;;;;;4918588;29;20040;-74
2022/11/02 07:53:44;;;;;;;8.30;2.78;;;;;;;;;;4908648;29;20053;-73
2022/11/02 07:56:10;;;;;;;7.97;2.30;;;;;;;;;;4917837;29;20100;-73
2022/11/02 07:58:36;;;;;;;6.35;2.60;;;;;;;;;;4926439;29;20048;-74
2022/11/02 08:01:03;;;;;;;8.65;2.38;;;;;;;;;;4931709;29;20048;-74
2022/11/02 08:03:29;;;;;;;7.35;2.40;;;;;;;;;;4918117;29;20055;-72
2022/11/02 08:05:56;;;;;;;4.55;1.73;;;;;;;;;;4918852;29;20036;-73
2022/11/02 08:08:23;;;;;;;5.65;1.67;;;;;;;;;;4918273;29;20048;-72
2022/11/02 08:10:50;;;;;;;6.00;1.45;;;;;;;;;;4919056;29;20048;-73
2022/11/02 08:13:19;;;;;;;8.70;1.98;;;;;;;;;;4916803;29;20043;-72
2022/11/02 08:15:53;;;;;;;8.27;2.00;;;;;;;;;;4913946;29;20036;-71
2022/11/02 08:18:20;;;;;;;10.82;2.03;;;;;;;;;;4916905;29;20032;-71
2022/11/02 08:20:47;;;;;;;9.43;2.00;;;;;;;;;;4913560;29;20080;-72
2022/11/02 08:23:14;;;;;;;5.80;1.98;;;;;;;;;;4914514;29;20047;-72
2022/11/02 08:25:41;;;;;;;5.07;2.08;;;;;;;;;;4910790;29;20047;-72
2022/11/02 08:28:07;;;;;;;10.32;2.35;;;;;;;;;;4907908;29;20096;-72
2022/11/02 08:30:34;;;;;;;4.35;1.77;;;;;;;;;;4914391;29;20036;-72
2022/11/02 08:33:04;;;;;;;9.38;1.98;;;;;;;;;;4921866;29;20055;-70
2022/11/02 08:35:30;;;;;;;5.40;1.50;;;;;;;;;;4917742;29;20587;-71
2022/11/02 08:37:56;;;;;;;9.38;1.75;;;;;;;;;;4917570;29;20527;-72
2022/11/02 08:40:23;;;;;;;6.45;1.90;;;;;;;;;;4917403;29;20055;-72
2022/11/02 08:42:49;;;;;;;6.22;2.17;;;;;;;;;;4918079;29;20469;-72
2022/11/02 08:45:16;;;;;;;7.43;1.85;;;;;;;;;;4902963;29;20032;-72
2022/11/02 08:47:42;;;;;;;5.18;1.50;;;;;;;;;;4918276;29;20084;-71
2022/11/02 08:50:09;;;;;;;8.30;2.10;;;;;;;;;;4918422;29;20512;-71
2022/11/02 08:52:36;;;;;;;9.48;2.33;;;;;;;;;;4917957;29;20507;-73
2022/11/02 08:55:02;;;;;;;8.32;2.20;;;;;;;;;;4917350;29;20044;-73
2022/11/02 08:57:28;;;;;;;6.30;1.85;;;;;;;;;;4916617;29;20055;-73
2022/11/02 08:59:54;;;;;;;8.57;1.95;;;;;;;;;;4920917;29;20114;-73
2022/11/02 09:02:21;;;;;;;3.47;1.90;;;;;;;;;;4915094;29;20048;-72
2022/11/02 09:04:47;;;;;;;6.47;2.13;;;;;;;;;;4917792;29;20039;-72
2022/11/02 09:07:13;;;;;;;6.93;2.10;;;;;;;;;;4914918;29;20203;-72
2022/11/02 09:09:39;;;;;;;6.65;1.88;;;;;;;;;;4917529;29;20054;-72
2022/11/02 09:12:05;;;;;;;10.45;1.77;;;;;;;;;;4916129;29;20048;-72
2022/11/02 09:14:32;;;;;;;5.35;1.70;;;;;;;;;;4914780;29;20131;-72
2022/11/02 09:17:01;;;;;;;6.75;1.80;;;;;;;;;;4917781;29;20047;-72
2022/11/02 09:19:27;;;;;;;6.07;1.80;;;;;;;;;;4918856;29;20047;-72
2022/11/02 09:21:54;;;;;;;4.22;1.38;;;;;;;;;;4930981;29;20058;-71
2022/11/02 09:24:20;;;;;;;6.78;2.08;;;;;;;;;;4910554;29;20040;-72
2022/11/02 09:26:47;;;;;;;4.65;1.58;;;;;;;;;;4917272;29;20047;-71
2022/11/02 09:29:13;;;;;;;4.57;1.80;;;;;;;;;;4916122;29;20071;-71
2022/11/02 09:31:39;;;;;;;4.15;1.40;;;;;;;;;;4912023;29;20392;-72
2022/11/02 09:34:05;;;;;;;4.10;1.10;;;;;;;;;;4922401;29;20046;-72
2022/11/02 09:36:31;;;;;;;3.15;1.00;;;;;;;;;;4916657;29;20127;-72
2022/11/02 09:38:58;;;;;;;2.13;0.90;;;;;;;;;;4918130;29;20052;-71
2022/11/02 09:41:31;;;;;;;3.15;1.15;;;;;;;;;;4914539;29;20103;-71
2022/11/02 09:44:07;;;;;;;4.18;1.00;;;;;;;;;;4916329;29;20036;-72
2022/11/02 09:46:38;;;;;;;5.40;1.15;;;;;;;;;;4916845;29;20075;-73
2022/11/02 09:49:04;;;;;;;;;;;;;;;;;;4917317;29;20052;-72
2022/11/02 09:51:38;;;;;;;6.47;1.02;;;;;;;;;;4918101;29;19958;-72
2022/11/02 09:54:10;;;;;;;5.30;1.00;;;;;;;;;;4920291;29;20090;-72
2022/11/02 09:56:36;;;;;;;2.88;1.05;;;;;;;;;;4916640;29;20067;-72
2022/11/02 09:59:12;;;;;;;2.42;1.00;;;;;;;;;;4921403;29;20091;-73
2022/11/02 10:01:48;;;;;;;3.53;1.23;;;;;;;;;;4920384;29;20048;-73
2022/11/02 10:04:14;;;;;;;3.22;1.00;;;;;;;;;;4919663;29;20135;-73
2022/11/02 10:06:44;;;;;;;3.17;1.00;;;;;;;;;;4920248;29;20048;-73
2022/11/02 10:09:15;;;;;;;2.10;0.77;;;;;;;;;;4920282;29;20075;-73
2022/11/02 10:11:51;;;;;;;1.73;0.82;;;;;;;;;;4915935;29;20504;-72
2022/11/02 10:14:22;;;;;;;3.92;1.17;;;;;;;;;;4919148;29;20051;-73
2022/11/02 10:17:09;;;;;;;3.35;0.88;;;;;;;;;;4920239;29;20538;-71
2022/11/02 10:19:38;;;;;;;2.03;1.00;;;;;;;;;;4913287;29;20044;-74
2022/11/02 10:22:04;;;;;;;5.57;1.10;;;;;;;;;;4919681;29;20142;-71
2022/11/02 10:24:33;;;;;;;2.92;1.20;;;;;;;;;;4917108;29;20048;-74
2022/11/02 10:27:00;;;;;;;1.85;1.27;;;;;;;;;;4918768;29;20245;-73
2022/11/02 10:29:49;;;;;;;3.60;1.17;;;;;;;;;;4910602;29;20119;-73
2022/11/02 10:32:16;;;;;;;1.95;1.08;;;;;;;;;;4903997;29;20045;-73
2022/11/02 10:34:42;;;;;;;1.75;1.10;;;;;;;;;;4920096;29;20131;-71
2022/11/02 10:37:28;;;;;;;3.78;0.88;;;;;;;;;;4935544;29;20092;-72
2022/11/02 10:39:54;;;;;;;3.05;0.85;;;;;;;;;;4932883;29;20048;-72
2022/11/02 10:42:26;;;;;;;8.32;1.23;;;;;;;;;;4919888;29;20139;-73
2022/11/02 10:44:55;;;;;;;3.30;1.30;;;;;;;;;;4919441;29;20119;-73
2022/11/02 10:47:26;;;;;;;2.08;1.05;;;;;;;;;;4913096;29;20504;-73
2022/11/02 10:50:11;;;;;;;1.80;0.82;;;;;;;;;;4920003;29;20416;-73
2022/11/02 10:52:38;;;;;;;2.22;1.00;;;;;;;;;;4919791;29;20059;-73
2022/11/02 10:55:09;;;;;;;3.63;1.15;;;;;;;;;;4919353;29;20495;-74
2022/11/02 10:57:38;;;;;;;3.33;1.10;;;;;;;;;;4919507;29;20051;-74
2022/11/02 11:00:24;;;;;;;2.33;0.90;;;;;;;;;;4919222;29;20130;-74
2022/11/02 11:03:09;;;;;;;2.92;1.00;;;;;;;;;;4918425;29;20040;-74
2022/11/02 11:05:37;;;;;;;4.57;1.02;;;;;;;;;;4919660;29;20037;-73
2022/11/02 11:08:03;;;;;;;2.80;1.15;;;;;;;;;;4919747;29;20048;-74
2022/11/02 11:10:32;;;;;;;3.03;1.17;;;;;;;;;;4920273;29;20059;-75
2022/11/02 11:12:58;;;;;;;1.02;0.88;;;;;;;;;;4919089;29;20099;-73
2022/11/02 11:15:26;;;;;;;2.80;1.08;;;;;;;;;;4919182;29;20036;-73
2022/11/02 11:17:53;;;;;;;2.03;0.80;;;;;;;;;;4919316;29;20495;-73
2022/11/02 11:20:35;;;;;;;4.47;1.10;;;;;;;;;;4919637;29;20610;-73
2022/11/02 11:23:21;;;;;;;1.88;0.98;;;;;;;;;;4919569;29;20044;-72
2022/11/02 11:26:08;;;;;;;3.40;0.90;;;;;;;;;;4900957;29;20049;-74
2022/11/02 11:28:34;;;;;;;3.63;1.30;;;;;;;;;;4918978;29;20074;-74
2022/11/02 11:31:12;;;;;;;3.70;1.33;;;;;;;;;;4918852;29;20044;-76
2022/11/02 11:33:42;;;;;;;3.22;1.00;;;;;;;;;;4918991;29;20522;-75
2022/11/02 11:36:10;;;;;;;2.20;1.10;;;;;;;;;;4918803;29;20123;-76
2022/11/02 11:38:36;;;;;;;4.28;1.38;;;;;;;;;;4918384;29;20496;-76
2022/11/02 11:41:03;;;;;;;3.22;1.00;;;;;;;;;;4919559;29;20561;-77
2022/11/02 11:43:33;;;;;;;3.55;1.10;;;;;;;;;;4923475;29;20056;-76
2022/11/02 11:46:00;;;;;;;2.08;0.90;;;;;;;;;;4917073;29;20044;-75
2022/11/02 11:48:44;;;;;;;3.25;1.10;;;;;;;;;;4918499;29;20123;-78
2022/11/02 11:51:29;;;;;;;4.55;1.02;;;;;;;;;;4915260;29;20123;-77
2022/11/02 11:54:14;;;;;;;4.20;1.40;;;;;;;;;;4918390;29;20051;-77
2022/11/02 11:56:40;;;;;;;2.42;1.10;;;;;;;;;;4919561;29;20147;-77
2022/11/02 11:59:18;;;;;;;1.67;0.95;;;;;;;;;;4919234;29;20055;-77
2022/11/02 12:01:44;;;;;;;2.75;1.23;;;;;;;;;;4918808;29;20044;-77
2022/11/02 12:04:10;;;;;;;2.47;1.30;;;;;;;;;;4918531;29;20044;-77
2022/11/02 12:06:51;;;;;;;2.83;1.27;;;;;;;;;;4918556;29;20131;-76
2022/11/02 12:09:40;;;;;;;3.03;1.23;;;;;;;;;;4918846;29;20036;-77
2022/11/02 12:12:06;;;;;;;4.00;1.17;;;;;;;;;;4915081;29;20048;-77
2022/11/02 12:14:32;;;;;;;21.08;13.95;;;;;;;;;;4917975;29;20067;-76
2022/11/02 12:17:05;;;;;;;11.38;7.10;;;;;;;;;;4916801;29;20492;-77
2022/11/02 12:19:40;;;;;;;7.18;4.25;;;;;;;;;;4915697;29;20044;-76
2022/11/02 12:22:09;;;;;;;3.50;1.58;;;;;;;;;;4917757;29;20083;-77
2022/11/02 12:24:45;;;;;;;1.90;1.27;;;;;;;;;;4918361;29;20044;-76
2022/11/02 12:27:30;;;;;;;2.08;1.00;;;;;;;;;;4918165;29;20131;-77
2022/11/02 12:30:13;;;;;;;2.13;1.10;;;;;;;;;;4918358;29;20040;-77
2022/11/02 12:32:51;;;;;;;3.33;1.13;;;;;;;;;;4916260;29;20477;-77
2022/11/02 12:35:23;;;;;;;4.28;1.83;;;;;;;;;;4918126;29;20506;-77
2022/11/02 12:37:52;;;;;;;3.30;1.35;;;;;;;;;;4917354;29;20495;-77
2022/11/02 12:40:54;;;;;;;1.92;0.93;;;;;;;;;;4917696;29;20111;-77
2022/11/02 12:43:20;;;;;;;2.58;1.10;;;;;;;;;;4896902;29;20139;-77
2022/11/02 12:45:51;;;;;;;4.82;1.05;;;;;;;;;;4913760;29;20508;-77
2022/11/02 12:48:41;;;;;;;1.95;0.90;;;;;;;;;;4917846;29;20048;-77
2022/11/02 12:51:12;;;;;;;2.97;0.80;;;;;;;;;;4901718;29;20079;-77
2022/11/02 12:53:38;;;;;;;;;;;;;;;;;;4930879;29;20054;-77
2022/11/02 12:56:06;;;;;;;2.92;1.10;;;;;;;;;;4920995;29;19911;-77
2022/11/02 12:58:36;;;;;;;4.05;1.40;;;;;;;;;;4918173;29;20529;-77
2022/11/02 13:01:26;;;;;;;4.07;1.10;;;;;;;;;;4917879;29;20460;-80
2022/11/02 13:03:52;;;;;;;2.35;1.10;;;;;;;;;;4914725;29;20048;-78
2022/11/02 13:06:24;;;;;;;3.78;1.17;;;;;;;;;;4918492;29;20050;-77
2022/11/02 13:08:54;;;;;;;2.35;1.02;;;;;;;;;;4918712;29;20048;-76
2022/11/02 13:11:28;;;;;;;2.05;1.10;;;;;;;;;;4918429;29;20496;-75
2022/11/02 13:13:56;;;;;;;3.38;1.10;;;;;;;;;;4918325;29;20048;-74
2022/11/02 13:16:31;;;;;;;1.92;1.08;;;;;;;;;;4918629;29;20040;-74
2022/11/02 13:18:59;;;;;;;3.50;1.42;;;;;;;;;;4918784;29;20123;-74
2022/11/02 13:21:46;;;;;;;1.95;0.98;;;;;;;;;;4918182;29;20084;-74
2022/11/02 13:24:19;;;;;;;3.10;1.00;;;;;;;;;;4916551;29;20052;-75
2022/11/02 13:26:47;;;;;;;2.30;0.90;;;;;;;;;;4918558;29;20043;-75
2022/11/02 13:29:16;;;;;;;3.17;1.23;;;;;;;;;;4921146;29;20054;-74
2022/11/02 13:31:45;;;;;;;1.83;1.00;;;;;;;;;;4921638;29;20052;-75
2022/11/02 13:34:14;;;;;;;2.30;1.13;;;;;;;;;;4921590;29;20032;-74
2022/11/02 13:36:40;;;;;;;3.00;1.30;;;;;;;;;;4921533;29;20134;-75
2022/11/02 13:39:14;;;;;;;2.50;1.10;;;;;;;;;;4921710;29;20075;-74
2022/11/02 13:41:40;;;;;;;5.22;1.30;;;;;;;;;;4921981;29;20059;-75
2022/11/02 13:44:21;;;;;;;1.58;0.95;;;;;;;;;;4921578;29;20075;-74
2022/11/02 13:47:06;;;;;;;1.10;1.00;;;;;;;;;;4921847;29;20047;-75
2022/11/02 13:49:48;;;;;;;2.15;1.00;;;;;;;;;;4922119;29;20048;-74
2022/11/02 13:52:16;;;;;;;1.65;0.93;;;;;;;;;;4921770;29;20048;-74
2022/11/02 13:54:50;;;;;;;3.33;1.20;;;;;;;;;;4921603;29;20067;-75
2022/11/02 13:57:28;;;;;;;1.70;1.00;;;;;;;;;;4921968;29;20048;-74
2022/11/02 13:59:54;;;;;;;1.10;0.90;;;;;;;;;;4921733;29;20131;-74
2022/11/02 14:02:21;;;;;;;1.70;0.90;;;;;;;;;;4921469;29;20499;-74
2022/11/02 14:04:48;;;;;;;2.03;0.95;;;;;;;;;;4921448;29;20087;-74
2022/11/02 14:07:20;;;;;;;2.40;1.13;;;;;;;;;;4921399;29;20511;-74
2022/11/02 14:09:46;;;;;;;3.65;1.30;;;;;;;;;;4921164;29;20079;-74
2022/11/02 14:12:26;;;;;;;3.25;1.27;;;;;;;;;;4921390;29;20559;-74
2022/11/02 14:15:10;;;;;;;1.60;0.95;;;;;;;;;;4921058;29;20052;-74
2022/11/02 14:18:00;;;;;;;2.42;1.00;;;;;;;;;;4921821;29;20067;-74
2022/11/02 14:20:34;;;;;;;3.08;0.90;;;;;;;;;;4920942;29;20071;-74
2022/11/02 14:23:17;;;;;;;3.72;0.77;;;;;;;;;;4920786;29;20059;-75
2022/11/02 14:25:47;;;;;;;1.90;0.90;;;;;;;;;;4920383;29;20046;-74
2022/11/02 14:28:20;;;;;;;2.78;1.10;;;;;;;;;;4920775;29;20496;-74
2022/11/02 14:30:47;;;;;;;9.73;1.30;;;;;;;;;;4920613;29;20044;-74
2022/11/02 14:33:24;;;;;;;2.88;1.10;;;;;;;;;;4920925;29;20048;-74
2022/11/02 14:35:56;;;;;;;3.15;1.20;;;;;;;;;;4920755;29;20051;-74
2022/11/02 14:38:25;;;;;;;2.33;1.10;;;;;;;;;;4920626;29;20040;-74
2022/11/02 14:40:51;;;;;;;7.50;4.20;;;;;;;;;;4920377;29;20522;-75
2022/11/02 14:43:21;;;;;;;1.98;1.20;;;;;;;;;;4920804;29;20056;-75
2022/11/02 14:45:56;;;;;;;1.70;1.13;;;;;;;;;;4920838;29;20075;-75
2022/11/02 14:48:24;;;;;;;1.33;1.00;;;;;;;;;;4921034;29;20071;-74
2022/11/02 14:51:03;;;;;;;3.30;0.90;;;;;;;;;;4920380;29;20048;-75
2022/11/02 14:53:32;;;;;;;1.27;0.90;;;;;;;;;;4920796;29;20048;-74
2022/11/02 14:55:58;;;;;;;2.55;1.00;;;;;;;;;;4920998;29;20044;-75
2022/11/02 14:58:28;;;;;;;3.50;1.10;;;;;;;;;;4920565;29;20051;-74
2022/11/02 15:00:56;;;;;;;1.17;0.80;;;;;;;;;;4920586;29;20052;-74
2022/11/02 15:03:26;;;;;;;1.65;0.80;;;;;;;;;;4920096;29;20095;-74
2022/11/02 15:05:59;;;;;;;2.13;0.90;;;;;;;;;;4920425;29;20091;-74
2022/11/02 15:08:27;;;;;;;2.22;0.77;;;;;;;;;;4919147;29;20387;-74
2022/11/02 15:10:53;;;;;;;2.78;1.17;;;;;;;;;;4919869;29;20048;-74
2022/11/02 15:13:19;;;;;;;4.28;1.10;;;;;;;;;;4920024;29;20073;-74
2022/11/02 15:15:51;;;;;;;4.03;1.10;;;;;;;;;;4919967;29;20512;-75